createdAt,value
2022-11-03T00:00:57.427Z,47.20
2022-11-03T00:03:27.616Z,48.82
2022-11-03T00:06:07.003Z,48.52
2022-11-03T00:08:36.060Z,49.29
2022-11-03T00:11:07.392Z,48.31
2022-11-03T00:13:35.019Z,48.15
2022-11-03T00:16:02.136Z,47.51
2022-11-03T00:18:29.223Z,48.18
2022-11-03T00:21:00.367Z,49.00
2022-11-03T00:23:31.062Z,49.96
2022-11-03T00:26:18.246Z,49.96
2022-11-03T00:28:45.714Z,49.31
2022-11-03T00:31:14.090Z,48.58
2022-11-03T00:33:41.327Z,47.51
2022-11-03T00:36:08.852Z,46.39
2022-11-03T00:38:37.646Z,45.50
2022-11-03T00:41:05.650Z,45.12
2022-11-03T00:43:33.444Z,45.59
2022-11-03T00:46:01.166Z,45.14
2022-11-03T00:48:31.008Z,44.59
2022-11-03T00:51:00.944Z,45.44
2022-11-03T00:53:28.653Z,45.95
2022-11-03T00:55:55.783Z,44.83
2022-11-03T00:58:22.910Z,45.02
2022-11-03T01:00:50.382Z,45.51
2022-11-03T01:03:17.559Z,46.54
2022-11-03T01:06:03.238Z,47.21
2022-11-03T01:08:34.143Z,46.50
2022-11-03T01:11:27.196Z,46.46
2022-11-03T01:13:54.582Z,46.95
2022-11-03T01:16:22.001Z,50.75
2022-11-03T01:18:49.280Z,48.77
2022-11-03T01:21:16.701Z,48.83
2022-11-03T01:23:43.922Z,50.50
2022-11-03T01:26:11.678Z,47.26
2022-11-03T01:28:39.481Z,46.30
2022-11-03T01:31:16.835Z,45.31
2022-11-03T01:33:45.731Z,45.04
2022-11-03T01:36:13.070Z,45.74
2022-11-03T01:38:40.196Z,44.79
2022-11-03T01:41:10.415Z,44.07
2022-11-03T01:43:38.867Z,43.66
2022-11-03T01:46:24.701Z,43.29
2022-11-03T01:48:56.475Z,43.01
2022-11-03T01:51:23.656Z,42.59
2022-11-03T01:53:51.351Z,42.47
2022-11-03T01:56:18.733Z,42.71
2022-11-03T01:58:46.902Z,42.72
2022-11-03T02:01:14.116Z,43.10
2022-11-03T02:03:42.826Z,43.14
2022-11-03T02:06:10.210Z,42.78
2022-11-03T02:08:37.359Z,42.72
2022-11-03T02:11:24.530Z,42.75
2022-11-03T02:13:52.239Z,43.04
2022-11-03T02:16:19.660Z,41.84
2022-11-03T02:18:46.785Z,41.71
2022-11-03T02:21:22.341Z,42.41
2022-11-03T02:24:09.721Z,42.26
2022-11-03T02:26:37.112Z,42.25
2022-11-03T02:29:04.240Z,42.78
2022-11-03T02:31:31.633Z,42.76
2022-11-03T02:34:01.659Z,42.44
2022-11-03T02:36:42.098Z,42.24
2022-11-03T02:39:15.178Z,43.32
2022-11-03T02:41:42.456Z,43.06
2022-11-03T02:44:12.203Z,43.46
2022-11-03T02:46:39.322Z,43.53
2022-11-03T02:49:06.495Z,43.60
2022-11-03T02:51:34.869Z,43.46
2022-11-03T02:54:10.221Z,44.46
2022-11-03T02:56:39.686Z,45.06
2022-11-03T02:59:08.588Z,44.84
2022-11-03T03:01:37.345Z,44.57
2022-11-03T03:04:06.475Z,44.42
2022-11-03T03:06:35.336Z,44.78
2022-11-03T03:09:03.897Z,44.67
2022-11-03T03:11:38.470Z,43.86
2022-11-03T03:14:10.377Z,43.13
2022-11-03T03:17:01.099Z,43.31
2022-11-03T03:19:46.724Z,42.79
2022-11-03T03:22:34.321Z,42.75
2022-11-03T03:25:03.815Z,42.48
2022-11-03T03:27:31.817Z,42.43
2022-11-03T03:30:00.624Z,42.41
2022-11-03T03:32:28.215Z,42.88
2022-11-03T03:34:55.625Z,43.26
2022-11-03T03:37:23.151Z,43.38
2022-11-03T03:39:51.746Z,42.90
2022-11-03T03:42:19.150Z,41.96
2022-11-03T03:44:46.296Z,41.99
2022-11-03T03:47:22.121Z,42.36
2022-11-03T03:49:49.844Z,42.17
2022-11-03T03:52:16.947Z,42.04
2022-11-03T03:54:44.065Z,41.88
2022-11-03T03:57:13.946Z,42.31
2022-11-03T03:59:41.043Z,42.29
2022-11-03T04:02:08.280Z,42.11
2022-11-03T04:04:35.765Z,43.01
2022-11-03T04:07:21.690Z,43.24
2022-11-03T04:09:49.208Z,43.70
2022-11-03T04:12:34.888Z,44.48
2022-11-03T04:15:20.733Z,45.08
2022-11-03T04:18:06.946Z,45.26
2022-11-03T04:20:53.151Z,44.41
2022-11-03T04:23:20.276Z,43.68
2022-11-03T04:25:48.322Z,43.27
2022-11-03T04:28:15.627Z,42.89
2022-11-03T04:30:42.776Z,42.72
2022-11-03T04:33:20.287Z,42.52
2022-11-03T04:35:47.785Z,42.65
2022-11-03T04:38:15.108Z,42.64
2022-11-03T04:40:49.172Z,42.09
2022-11-03T04:43:19.717Z,42.40
2022-11-03T04:45:47.439Z,42.81
2022-11-03T04:48:15.348Z,42.32
2022-11-03T04:50:46.588Z,42.89
2022-11-03T04:53:14.724Z,42.83
2022-11-03T04:55:41.996Z,42.47
2022-11-03T04:58:22.527Z,42.45
2022-11-03T05:00:53.510Z,42.22
2022-11-03T05:03:22.956Z,42.19
2022-11-03T05:05:50.083Z,42.09
2022-11-03T05:08:20.465Z,41.87
2022-11-03T05:10:48.134Z,41.62
2022-11-03T05:13:16.970Z,41.86
2022-11-03T05:15:45.260Z,41.72
2022-11-03T05:18:20.269Z,41.55
2022-11-03T05:20:50.827Z,41.51
2022-11-03T05:23:18.435Z,41.63
2022-11-03T05:25:45.969Z,41.54
2022-11-03T05:28:16.152Z,41.31
2022-11-03T05:30:43.508Z,41.97
2022-11-03T05:33:30.962Z,41.99
2022-11-03T05:35:59.736Z,41.84
2022-11-03T05:38:29.139Z,41.60
2022-11-03T05:40:56.265Z,41.80
2022-11-03T05:43:23.662Z,41.34
2022-11-03T05:45:51.491Z,41.52
2022-11-03T05:48:21.782Z,41.32
2022-11-03T05:50:49.178Z,41.69
2022-11-03T05:53:16.577Z,41.03
2022-11-03T05:55:43.702Z,41.11
2022-11-03T05:58:14.159Z,41.03
2022-11-03T06:00:47.118Z,41.89
2022-11-03T06:03:16.848Z,42.45
2022-11-03T06:05:43.956Z,44.02
2022-11-03T06:08:17.866Z,43.94
2022-11-03T06:10:45.920Z,45.65
2022-11-03T06:13:18.419Z,47.28
2022-11-03T06:15:46.383Z,48.19
2022-11-03T06:18:16.953Z,46.73
2022-11-03T06:20:44.928Z,47.56
2022-11-03T06:23:12.754Z,46.47
2022-11-03T06:25:41.998Z,45.38
2022-11-03T06:28:11.775Z,44.35
2022-11-03T06:30:39.876Z,43.53
2022-11-03T06:33:09.905Z,44.44
2022-11-03T06:35:37.074Z,45.00
2022-11-03T06:38:05.623Z,45.21
2022-11-03T06:40:33.382Z,45.87
2022-11-03T06:43:01.166Z,47.39
2022-11-03T06:45:29.555Z,46.31
2022-11-03T06:47:56.655Z,46.49
2022-11-03T06:50:30.920Z,45.89
2022-11-03T06:52:58.618Z,45.25
2022-11-03T06:55:26.642Z,45.69
2022-11-03T06:57:55.360Z,44.68
2022-11-03T07:00:36.171Z,45.26
2022-11-03T07:03:04.237Z,47.34
2022-11-03T07:05:32.265Z,45.85
2022-11-03T07:08:00.391Z,44.60
2022-11-03T07:10:28.697Z,45.49
2022-11-03T07:12:56.453Z,45.55
2022-11-03T07:15:25.739Z,46.03
2022-11-03T07:17:52.836Z,46.28
2022-11-03T07:20:20.232Z,45.44
2022-11-03T07:22:47.459Z,47.85
2022-11-03T07:25:16.484Z,49.92
2022-11-03T07:27:43.856Z,52.34
2022-11-03T07:30:21.226Z,52.46
2022-11-03T07:32:52.790Z,51.93
2022-11-03T07:35:41.626Z,51.47
2022-11-03T07:38:21.235Z,52.88
2022-11-03T07:40:49.248Z,53.13
2022-11-03T07:43:20.995Z,51.82
2022-11-03T07:45:48.831Z,53.06
2022-11-03T07:48:15.945Z,54.46
2022-11-03T07:50:43.295Z,55.80
2022-11-03T07:53:12.378Z,53.33
2022-11-03T07:55:39.648Z,54.95
2022-11-03T07:58:18.269Z,57.80
2022-11-03T08:00:45.738Z,56.77
2022-11-03T08:03:21.344Z,57.56
2022-11-03T08:05:48.438Z,57.11
2022-11-03T08:08:15.835Z,59.82
2022-11-03T08:10:43.010Z,58.68
2022-11-03T08:13:10.142Z,57.68
2022-11-03T08:15:37.511Z,58.14
2022-11-03T08:18:04.767Z,58.75
2022-11-03T08:20:31.867Z,57.32
2022-11-03T08:23:23.839Z,58.53
2022-11-03T08:25:46.574Z,60.54
2022-11-03T08:28:14.051Z,60.08
2022-11-03T08:30:41.162Z,61.34
2022-11-03T08:33:08.691Z,60.67
2022-11-03T08:35:36.395Z,60.18
2022-11-03T08:38:03.726Z,60.69
2022-11-03T08:40:30.976Z,60.04
2022-11-03T08:42:58.450Z,61.29
2022-11-03T08:45:25.553Z,60.20
2022-11-03T08:47:52.636Z,61.28
2022-11-03T08:50:20.064Z,59.32
2022-11-03T08:52:47.162Z,59.39
2022-11-03T08:55:16.974Z,57.85
2022-11-03T08:57:44.374Z,58.52
2022-11-03T09:00:11.800Z,59.41
2022-11-03T09:02:38.961Z,58.16
2022-11-03T09:05:09.828Z,59.34
2022-11-03T09:10:28.441Z,61.17
2022-11-03T09:13:01.644Z,60.84
2022-11-03T09:15:29.380Z,60.91
2022-11-03T09:17:56.632Z,60.54
2022-11-03T09:20:26.196Z,59.19
2022-11-03T09:22:56.025Z,57.96
2022-11-03T09:25:25.968Z,59.02
2022-11-03T09:27:53.481Z,59.39
2022-11-03T09:30:21.260Z,58.94
2022-11-03T09:32:48.583Z,60.20
2022-11-03T09:35:17.034Z,59.45
2022-11-03T09:37:44.405Z,61.28
2022-11-03T09:40:11.773Z,61.61
2022-11-03T09:42:39.320Z,61.17
2022-11-03T09:45:07.733Z,60.27
2022-11-03T09:47:41.779Z,60.88
2022-11-03T09:50:16.728Z,58.99
2022-11-03T09:52:48.771Z,60.91
2022-11-03T09:55:27.796Z,61.04
2022-11-03T09:57:55.592Z,61.12
2022-11-03T10:00:23.565Z,62.17
2022-11-03T10:02:50.954Z,62.05
2022-11-03T10:05:25.085Z,61.31
2022-11-03T10:10:20.434Z,60.71
2022-11-03T10:12:48.360Z,59.17
2022-11-03T10:15:16.595Z,60.86
2022-11-03T10:17:44.633Z,61.33
2022-11-03T10:20:12.663Z,61.12
2022-11-03T10:22:41.351Z,60.82
2022-11-03T10:25:26.477Z,61.22
2022-11-03T10:28:09.234Z,63.22
2022-11-03T10:31:11.202Z,63.41
2022-11-03T10:33:40.873Z,63.20
2022-11-03T10:36:17.097Z,61.60
2022-11-03T10:38:45.037Z,61.43
2022-11-03T10:41:15.257Z,62.87
2022-11-03T10:43:43.819Z,64.75
2022-11-03T10:46:36.933Z,63.91
2022-11-03T10:49:12.764Z,62.65
2022-11-03T10:51:40.453Z,62.66
2022-11-03T10:54:10.345Z,64.09
2022-11-03T10:56:37.456Z,62.88
2022-11-03T10:59:04.847Z,62.61
2022-11-03T11:01:32.096Z,59.63
2022-11-03T11:03:59.388Z,58.49
2022-11-03T11:06:29.763Z,58.57
2022-11-03T11:09:04.111Z,60.42
2022-11-03T11:11:31.492Z,62.33
2022-11-03T11:14:17.199Z,64.58
2022-11-03T11:16:47.610Z,62.00
2022-11-03T11:19:14.761Z,62.56
2022-11-03T11:21:41.810Z,63.09
2022-11-03T11:24:09.560Z,61.31
2022-11-03T11:26:37.207Z,60.87
2022-11-03T11:29:10.362Z,62.48
2022-11-03T11:31:38.223Z,63.14
2022-11-03T11:34:17.279Z,65.71
2022-11-03T11:37:04.628Z,65.41
2022-11-03T11:39:32.141Z,62.22
2022-11-03T11:42:12.279Z,62.49
2022-11-03T11:44:39.555Z,62.17
2022-11-03T11:47:25.793Z,61.20
2022-11-03T11:50:02.049Z,61.96
2022-11-03T11:52:29.839Z,61.83
2022-11-03T11:54:56.959Z,62.53
2022-11-03T11:57:24.114Z,62.02
2022-11-03T11:59:51.490Z,61.94
2022-11-03T12:02:19.503Z,64.31
2022-11-03T12:04:47.193Z,63.62
2022-11-03T12:07:14.318Z,63.04
2022-11-03T12:10:00.196Z,62.71
2022-11-03T12:12:33.769Z,61.93
2022-11-03T12:15:00.861Z,62.68
2022-11-03T12:17:28.163Z,62.47
2022-11-03T12:19:55.347Z,61.67
2022-11-03T12:22:29.250Z,60.89
2022-11-03T12:25:00.768Z,60.46
2022-11-03T12:27:29.220Z,59.33
2022-11-03T12:29:57.734Z,62.37
2022-11-03T12:32:33.542Z,63.42
2022-11-03T12:35:06.232Z,62.23
2022-11-03T12:37:33.384Z,61.71
2022-11-03T12:40:00.670Z,62.70
2022-11-03T12:42:28.057Z,60.56
2022-11-03T12:44:55.913Z,60.16
2022-11-03T12:47:23.156Z,61.47
2022-11-03T12:49:50.568Z,61.64
2022-11-03T12:52:17.688Z,61.88
2022-11-03T12:54:45.090Z,62.69
2022-11-03T12:57:12.469Z,61.57
2022-11-03T12:59:39.596Z,60.97
2022-11-03T13:02:06.956Z,62.17
2022-11-03T13:04:34.412Z,62.20
2022-11-03T13:07:01.549Z,62.03
2022-11-03T13:09:28.642Z,59.11
2022-11-03T13:12:14.475Z,59.03
2022-11-03T13:14:45.920Z,59.63
2022-11-03T13:17:15.536Z,61.89
2022-11-03T13:19:42.669Z,61.88
2022-11-03T13:22:09.773Z,62.75
2022-11-03T13:24:37.162Z,65.28
2022-11-03T13:27:04.319Z,63.63
2022-11-03T13:29:35.349Z,62.79
2022-11-03T13:32:03.687Z,61.63
2022-11-03T13:34:30.912Z,61.65
2022-11-03T13:36:58.769Z,61.04
2022-11-03T13:39:26.172Z,60.70
2022-11-03T13:41:53.278Z,59.19
2022-11-03T13:44:20.562Z,59.85
2022-11-03T13:46:47.955Z,60.10
2022-11-03T13:52:03.331Z,60.27
2022-11-03T14:00:05.656Z,61.67
2022-11-03T14:05:27.635Z,59.28
2022-11-03T14:07:54.762Z,60.05
2022-11-03T14:10:21.920Z,62.32
2022-11-03T14:12:49.290Z,64.00
2022-11-03T14:15:16.495Z,62.50
2022-11-03T14:17:43.612Z,64.31
2022-11-03T14:20:11.434Z,64.37
2022-11-03T14:22:39.111Z,65.70
2022-11-03T14:25:06.529Z,64.64
2022-11-03T14:27:33.973Z,63.92
2022-11-03T14:30:01.079Z,60.29
2022-11-03T14:32:28.200Z,59.45
2022-11-03T14:34:55.676Z,57.63
2022-11-03T14:37:25.314Z,58.29
2022-11-03T14:39:52.556Z,61.12
2022-11-03T14:42:20.002Z,61.91
2022-11-03T14:44:47.591Z,60.88
2022-11-03T14:47:18.749Z,58.89
2022-11-03T14:49:47.498Z,59.17
2022-11-03T14:52:14.830Z,59.54
2022-11-03T14:54:42.036Z,59.51
2022-11-03T14:57:09.839Z,59.57
2022-11-03T14:59:36.957Z,60.47
2022-11-03T15:02:04.543Z,62.55
2022-11-03T15:04:32.249Z,65.53
2022-11-03T15:06:59.422Z,63.24
2022-11-03T15:09:26.537Z,61.53
2022-11-03T15:11:53.928Z,62.70
2022-11-03T15:14:21.069Z,64.87
2022-11-03T15:16:48.264Z,63.89
2022-11-03T15:19:15.642Z,61.84
2022-11-03T15:21:42.869Z,61.33
2022-11-03T15:26:57.326Z,65.58
2022-11-03T15:29:24.471Z,64.71
2022-11-03T15:31:51.825Z,65.77
2022-11-03T15:34:19.205Z,65.84
2022-11-03T15:36:46.329Z,65.66
2022-11-03T15:39:13.611Z,62.78
2022-11-03T15:41:41.072Z,63.24
2022-11-03T15:44:08.219Z,66.11
2022-11-03T15:46:35.887Z,65.33
2022-11-03T15:49:03.738Z,66.59
2022-11-03T15:51:30.926Z,64.94
2022-11-03T15:53:59.143Z,65.85
2022-11-03T15:56:27.223Z,66.46
2022-11-03T15:58:54.507Z,67.65
2022-11-03T16:01:21.761Z,68.47
2022-11-03T16:03:49.315Z,69.28
2022-11-03T16:06:16.558Z,70.04
2022-11-03T16:08:43.709Z,68.46
2022-11-03T16:11:11.087Z,68.89
2022-11-03T16:13:38.294Z,70.10
2022-11-03T16:16:05.603Z,69.20
2022-11-03T16:18:33.229Z,68.42
2022-11-03T16:21:00.475Z,68.76
2022-11-03T16:23:27.616Z,69.15
2022-11-03T16:25:55.065Z,70.53
2022-11-03T16:28:23.230Z,69.87
2022-11-03T16:30:54.305Z,67.21
2022-11-03T16:33:22.445Z,68.06
2022-11-03T16:35:49.561Z,69.93
2022-11-03T16:38:16.982Z,68.72
2022-11-03T16:40:44.460Z,66.73
2022-11-03T16:43:11.853Z,66.43
2022-11-03T16:45:38.961Z,65.82
2022-11-03T16:48:07.397Z,64.62
2022-11-03T16:50:35.059Z,65.68
2022-11-03T16:53:02.945Z,67.53
2022-11-03T16:55:30.367Z,63.85
2022-11-03T16:57:57.766Z,66.04
2022-11-03T17:00:25.119Z,66.19
2022-11-03T17:02:52.511Z,66.29
2022-11-03T17:05:21.946Z,64.22
2022-11-03T17:07:53.712Z,61.43
2022-11-03T17:10:22.222Z,63.87
2022-11-03T17:12:50.069Z,60.65
2022-11-03T17:15:17.437Z,61.51
2022-11-03T17:17:44.894Z,61.93
2022-11-03T17:20:12.144Z,61.67
2022-11-03T17:22:39.468Z,63.94
2022-11-03T17:25:09.516Z,63.11
2022-11-03T17:27:44.805Z,63.17
2022-11-03T17:30:13.345Z,62.91
2022-11-03T17:32:44.303Z,60.73
2022-11-03T17:35:18.036Z,61.86
2022-11-03T17:37:45.873Z,60.52
2022-11-03T17:40:17.085Z,59.13
2022-11-03T17:42:44.626Z,61.91
2022-11-03T17:45:12.722Z,61.86
2022-11-03T17:47:40.202Z,60.30
2022-11-03T17:50:08.081Z,58.52
2022-11-03T17:52:36.156Z,59.22
2022-11-03T17:55:05.127Z,58.16
2022-11-03T17:57:32.995Z,58.20
2022-11-03T18:00:02.059Z,56.68
2022-11-03T18:02:38.094Z,58.20
2022-11-03T18:05:14.180Z,59.38
2022-11-03T18:07:44.415Z,58.22
2022-11-03T18:10:12.025Z,58.95
2022-11-03T18:12:59.598Z,61.38
2022-11-03T18:15:27.453Z,60.55
2022-11-03T18:17:54.981Z,63.20
2022-11-03T18:20:23.967Z,62.92
2022-11-03T18:22:52.023Z,66.18
2022-11-03T18:25:20.676Z,65.43
2022-11-03T18:27:48.431Z,66.63
2022-11-03T18:30:16.905Z,65.06
2022-11-03T18:32:45.669Z,65.32
2022-11-03T18:35:15.878Z,64.68
2022-11-03T18:37:47.674Z,63.54
2022-11-03T18:40:16.179Z,62.43
2022-11-03T18:42:44.115Z,60.71
2022-11-03T18:45:12.758Z,62.11
2022-11-03T18:47:40.579Z,63.73
2022-11-03T18:50:14.618Z,62.87
2022-11-03T18:52:43.005Z,62.13
2022-11-03T18:55:12.397Z,62.57
2022-11-03T18:57:40.275Z,62.03
2022-11-03T19:00:19.593Z,62.38
2022-11-03T19:02:47.948Z,64.52
2022-11-03T19:05:16.004Z,62.51
2022-11-03T19:07:44.112Z,60.99
2022-11-03T19:10:15.176Z,62.06
2022-11-03T19:12:48.826Z,61.73
2022-11-03T19:15:19.203Z,61.17
2022-11-03T19:17:47.918Z,60.17
2022-11-03T19:20:16.285Z,62.63
2022-11-03T19:22:43.969Z,62.50
2022-11-03T19:25:11.537Z,63.21
2022-11-03T19:27:39.693Z,64.74
2022-11-03T19:30:07.866Z,63.25
2022-11-03T19:32:36.408Z,62.50
2022-11-03T19:35:06.636Z,59.65
2022-11-03T19:37:35.995Z,62.35
2022-11-03T19:40:22.994Z,61.63
2022-11-03T19:42:51.945Z,59.88
2022-11-03T19:45:20.365Z,59.95
2022-11-03T19:48:18.187Z,60.20
2022-11-03T19:50:40.645Z,59.88
2022-11-03T19:53:08.734Z,58.96
2022-11-03T19:55:36.515Z,58.71
2022-11-03T19:58:16.447Z,60.58
2022-11-03T20:00:44.859Z,60.04
2022-11-03T20:03:13.462Z,59.14
2022-11-03T20:05:43.964Z,62.77
2022-11-03T20:08:19.936Z,61.55
2022-11-03T20:10:49.020Z,60.90
2022-11-03T20:13:18.330Z,58.85
2022-11-03T20:15:46.625Z,59.98
2022-11-03T20:18:14.558Z,59.45
2022-11-03T20:20:43.436Z,62.51
2022-11-03T20:23:24.344Z,62.01
2022-11-03T20:25:52.338Z,61.62
2022-11-03T20:28:23.411Z,59.64
2022-11-03T20:30:51.078Z,60.22
2022-11-03T20:33:19.706Z,61.33
2022-11-03T20:35:47.085Z,61.83
2022-11-03T20:38:17.481Z,61.34
2022-11-03T20:40:45.479Z,61.48
2022-11-03T20:43:22.281Z,59.42
2022-11-03T20:45:50.331Z,57.22
2022-11-03T20:48:17.718Z,56.96
2022-11-03T20:50:53.688Z,59.82
2022-11-03T20:53:22.259Z,62.89
2022-11-03T20:55:50.086Z,62.36
2022-11-03T20:58:18.409Z,62.21
2022-11-03T21:00:46.232Z,58.91
2022-11-03T21:03:37.682Z,60.16
2022-11-03T21:06:05.648Z,60.29
2022-11-03T21:08:32.872Z,58.93
2022-11-03T21:11:20.312Z,59.85
2022-11-03T21:13:47.980Z,59.33
2022-11-03T21:16:33.699Z,61.32
2022-11-03T21:19:20.248Z,59.60
2022-11-03T21:21:47.568Z,58.51
2022-11-03T21:24:15.172Z,56.37
2022-11-03T21:26:42.704Z,57.67
2022-11-03T21:29:10.493Z,58.51
2022-11-03T21:31:37.954Z,59.01
2022-11-03T21:34:05.148Z,58.54
2022-11-03T21:36:32.336Z,60.56
2022-11-03T21:38:59.698Z,60.05
2022-11-03T21:41:45.754Z,61.36
2022-11-03T21:44:16.053Z,58.59
2022-11-03T21:46:43.527Z,57.95
2022-11-03T21:49:29.458Z,55.07
2022-11-03T21:52:19.294Z,56.65
2022-11-03T21:54:46.445Z,55.86
2022-11-03T21:57:16.997Z,58.13
2022-11-03T21:59:44.123Z,57.63
2022-11-03T22:02:11.351Z,53.70
2022-11-03T22:04:38.816Z,54.39
2022-11-03T22:07:06.181Z,58.79
2022-11-03T22:09:33.408Z,58.10
2022-11-03T22:12:00.984Z,60.83
2022-11-03T22:14:48.073Z,56.63
2022-11-03T22:17:15.496Z,55.07
2022-11-03T22:20:01.400Z,57.42
2022-11-03T22:22:47.949Z,56.32
2022-11-03T22:25:33.844Z,59.11
2022-11-03T22:28:01.249Z,57.11
2022-11-03T22:30:47.266Z,56.32
2022-11-03T22:33:14.732Z,56.28
2022-11-03T22:36:00.282Z,55.80
2022-11-03T22:38:46.248Z,56.09
2022-11-03T22:41:32.045Z,59.39
2022-11-03T22:44:17.935Z,58.25
2022-11-03T22:46:45.068Z,56.57
2022-11-03T22:49:12.463Z,54.87
2022-11-03T22:51:39.574Z,58.95
2022-11-03T22:54:12.717Z,59.73
2022-11-03T22:56:40.146Z,59.05
2022-11-03T22:59:07.546Z,57.73
2022-11-03T23:01:35.100Z,56.61
2022-11-03T23:04:04.834Z,55.22
2022-11-03T23:06:34.308Z,56.93
2022-11-03T23:09:01.552Z,56.87
2022-11-03T23:11:32.441Z,55.38
2022-11-03T23:14:00.644Z,57.41
2022-11-03T23:16:28.858Z,56.99
2022-11-03T23:19:15.195Z,55.72
2022-11-03T23:21:44.134Z,57.49
2022-11-03T23:24:30.268Z,60.54
2022-11-03T23:26:59.505Z,57.27
2022-11-03T23:29:27.366Z,58.68
2022-11-03T23:31:54.847Z,57.04
2022-11-03T23:34:22.077Z,57.14
2022-11-03T23:36:49.596Z,57.63
2022-11-03T23:39:17.444Z,58.10
2022-11-03T23:41:44.589Z,56.97
2022-11-03T23:44:12.213Z,56.49
2022-11-03T23:46:58.087Z,57.88
2022-11-03T23:49:25.481Z,56.55
2022-11-03T23:51:52.683Z,58.09
2022-11-03T23:54:19.804Z,57.48
2022-11-03T23:57:06.059Z,57.36
2022-11-03T23:59:34.038Z,57.28
